sensor_id;sensor_type;location;lat;lon;timestamp;temperature;humidity
21811;DHT22;11067;48.788;9.208;2023-12-20T00:00:57;7.30;99.90
21811;DHT22;11067;48.788;9.208;2023-12-20T00:03:23;7.30;99.90
21811;DHT22;11067;48.788;9.208;2023-12-20T00:05:49;7.30;99.90
21811;DHT22;11067;48.788;9.208;2023-12-20T00:08:15;7.30;99.90
21811;DHT22;11067;48.788;9.208;2023-12-20T00:10:41;7.30;99.90
21811;DHT22;11067;48.788;9.208;2023-12-20T00:13:06;7.30;99.90
21811;DHT22;11067;48.788;9.208;2023-12-20T00:15:33;7.30;99.90
21811;DHT22;11067;48.788;9.208;2023-12-20T00:17:59;7.30;99.90
21811;DHT22;11067;48.788;9.208;2023-12-20T00:20:24;7.40;99.90
21811;DHT22;11067;48.788;9.208;2023-12-20T00:22:50;7.40;99.90
21811;DHT22;11067;48.788;9.208;2023-12-20T00:25:15;7.40;99.90
21811;DHT22;11067;48.788;9.208;2023-12-20T00:27:41;7.40;99.90
21811;DHT22;11067;48.788;9.208;2023-12-20T00:30:07;7.40;99.90
21811;DHT22;11067;48.788;9.208;2023-12-20T00:32:34;7.30;99.90
21811;DHT22;11067;48.788;9.208;2023-12-20T00:35:00;7.40;99.90
21811;DHT22;11067;48.788;9.208;2023-12-20T00:37:25;7.30;99.90
21811;DHT22;11067;48.788;9.208;2023-12-20T00:39:51;7.30;99.90
21811;DHT22;11067;48.788;9.208;2023-12-20T00:42:16;7.20;99.90
21811;DHT22;11067;48.788;9.208;2023-12-20T00:44:42;7.20;99.90
21811;DHT22;11067;48.788;9.208;2023-12-20T00:47:07;7.20;99.90
21811;DHT22;11067;48.788;9.208;2023-12-20T00:49:33;7.20;99.90
21811;DHT22;11067;48.788;9.208;2023-12-20T00:51:58;7.10;99.90
21811;DHT22;11067;48.788;9.208;2023-12-20T00:54:24;7.20;99.90
21811;DHT22;11067;48.788;9.208;2023-12-20T00:56:49;7.20;99.90
21811;DHT22;11067;48.788;9.208;2023-12-20T00:59:16;7.10;99.90
21811;DHT22;11067;48.788;9.208;2023-12-20T01:01:42;7.10;99.90
21811;DHT22;11067;48.788;9.208;2023-12-20T01:04:07;7.00;99.90
21811;DHT22;11067;48.788;9.208;2023-12-20T01:06:33;7.10;99.90
21811;DHT22;11067;48.788;9.208;2023-12-20T01:08:58;7.00;99.90
21811;DHT22;11067;48.788;9.208;2023-12-20T01:11:24;7.00;99.90
21811;DHT22;11067;48.788;9.208;2023-12-20T01:13:49;7.00;99.90
21811;DHT22;11067;48.788;9.208;2023-12-20T01:16:15;7.00;99.90
21811;DHT22;11067;48.788;9.208;2023-12-20T01:18:40;7.00;99.90
21811;DHT22;11067;48.788;9.208;2023-12-20T01:21:06;7.00;99.90
21811;DHT22;11067;48.788;9.208;2023-12-20T01:23:32;6.90;99.90
21811;DHT22;11067;48.788;9.208;2023-12-20T01:25:58;6.90;99.90
21811;DHT22;11067;48.788;9.208;2023-12-20T01:28:25;6.80;99.90
21811;DHT22;11067;48.788;9.208;2023-12-20T01:30:50;6.80;99.90
21811;DHT22;11067;48.788;9.208;2023-12-20T01:33:16;6.80;99.90
21811;DHT22;11067;48.788;9.208;2023-12-20T01:35:41;6.80;99.90
21811;DHT22;11067;48.788;9.208;2023-12-20T01:38:08;6.80;99.90
21811;DHT22;11067;48.788;9.208;2023-12-20T01:40:34;6.90;99.90
21811;DHT22;11067;48.788;9.208;2023-12-20T01:43:01;6.90;99.90
21811;DHT22;11067;48.788;9.208;2023-12-20T01:45:27;6.90;99.90
21811;DHT22;11067;48.788;9.208;2023-12-20T01:47:54;6.90;99.90
21811;DHT22;11067;48.788;9.208;2023-12-20T01:50:21;6.90;99.90
21811;DHT22;11067;48.788;9.208;2023-12-20T01:52:46;6.90;99.90
21811;DHT22;11067;48.788;9.208;2023-12-20T01:55:13;6.90;99.90
21811;DHT22;11067;48.788;9.208;2023-12-20T01:57:43;6.90;99.90
21811;DHT22;11067;48.788;9.208;2023-12-20T02:00:11;6.80;99.90
21811;DHT22;11067;48.788;9.208;2023-12-20T02:02:39;6.80;99.90
21811;DHT22;11067;48.788;9.208;2023-12-20T02:05:06;6.80;99.90
21811;DHT22;11067;48.788;9.208;2023-12-20T02:07:32;6.80;99.90
21811;DHT22;11067;48.788;9.208;2023-12-20T02:09:58;6.80;99.90
21811;DHT22;11067;48.788;9.208;2023-12-20T02:12:24;6.80;99.90
21811;DHT22;11067;48.788;9.208;2023-12-20T02:14:49;6.90;99.90
21811;DHT22;11067;48.788;9.208;2023-12-20T02:17:15;6.80;99.90
21811;DHT22;11067;48.788;9.208;2023-12-20T02:19:41;6.80;99.90
21811;DHT22;11067;48.788;9.208;2023-12-20T02:22:10;6.80;99.90
21811;DHT22;11067;48.788;9.208;2023-12-20T02:24:36;6.80;99.90
21811;DHT22;11067;48.788;9.208;2023-12-20T02:27:02;6.80;99.90
21811;DHT22;11067;48.788;9.208;2023-12-20T02:29:28;6.70;99.90
21811;DHT22;11067;48.788;9.208;2023-12-20T02:31:54;6.80;99.90
21811;DHT22;11067;48.788;9.208;2023-12-20T02:34:19;6.80;99.90
21811;DHT22;11067;48.788;9.208;2023-12-20T02:36:45;6.80;99.90
21811;DHT22;11067;48.788;9.208;2023-12-20T02:39:10;6.80;99.90
21811;DHT22;11067;48.788;9.208;2023-12-20T02:41:36;6.80;99.90
21811;DHT22;11067;48.788;9.208;2023-12-20T02:44:02;6.80;99.90
21811;DHT22;11067;48.788;9.208;2023-12-20T02:46:28;6.70;99.90
21811;DHT22;11067;48.788;9.208;2023-12-20T02:48:53;6.70;99.90
21811;DHT22;11067;48.788;9.208;2023-12-20T02:51:18;6.80;99.90
21811;DHT22;11067;48.788;9.208;2023-12-20T02:53:44;6.80;99.90
21811;DHT22;11067;48.788;9.208;2023-12-20T02:56:10;6.70;99.90
21811;DHT22;11067;48.788;9.208;2023-12-20T02:58:36;6.70;99.90
21811;DHT22;11067;48.788;9.208;2023-12-20T03:01:01;6.70;99.90
21811;DHT22;11067;48.788;9.208;2023-12-20T03:03:27;6.70;99.90
21811;DHT22;11067;48.788;9.208;2023-12-20T03:05:52;6.70;99.90
21811;DHT22;11067;48.788;9.208;2023-12-20T03:08:18;6.70;99.90
21811;DHT22;11067;48.788;9.208;2023-12-20T03:10:43;6.70;99.90
21811;DHT22;11067;48.788;9.208;2023-12-20T03:13:09;6.70;99.90
21811;DHT22;11067;48.788;9.208;2023-12-20T03:15:34;6.80;99.90
21811;DHT22;11067;48.788;9.208;2023-12-20T03:18:00;6.80;99.90
21811;DHT22;11067;48.788;9.208;2023-12-20T03:20:25;6.90;99.90
21811;DHT22;11067;48.788;9.208;2023-12-20T03:22:51;6.90;99.90
21811;DHT22;11067;48.788;9.208;2023-12-20T03:25:17;6.90;99.90
21811;DHT22;11067;48.788;9.208;2023-12-20T03:27:43;6.90;99.90
21811;DHT22;11067;48.788;9.208;2023-12-20T03:30:08;6.90;99.90
21811;DHT22;11067;48.788;9.208;2023-12-20T03:32:34;7.00;99.90
21811;DHT22;11067;48.788;9.208;2023-12-20T03:35:00;7.00;99.90
21811;DHT22;11067;48.788;9.208;2023-12-20T03:37:25;7.00;99.90
21811;DHT22;11067;48.788;9.208;2023-12-20T03:39:51;7.00;99.90
21811;DHT22;11067;48.788;9.208;2023-12-20T03:42:16;7.00;99.90
21811;DHT22;11067;48.788;9.208;2023-12-20T03:44:42;7.10;99.90
21811;DHT22;11067;48.788;9.208;2023-12-20T03:47:07;7.10;99.90
21811;DHT22;11067;48.788;9.208;2023-12-20T03:49:33;7.00;99.90
21811;DHT22;11067;48.788;9.208;2023-12-20T03:51:58;6.90;99.90
21811;DHT22;11067;48.788;9.208;2023-12-20T03:54:24;6.90;99.90
21811;DHT22;11067;48.788;9.208;2023-12-20T03:56:50;6.90;99.90
21811;DHT22;11067;48.788;9.208;2023-12-20T03:59:16;6.80;99.90
21811;DHT22;11067;48.788;9.208;2023-12-20T04:01:45;6.80;99.90
21811;DHT22;11067;48.788;9.208;2023-12-20T04:04:11;6.70;99.90
21811;DHT22;11067;48.788;9.208;2023-12-20T04:06:37;6.70;99.90
21811;DHT22;11067;48.788;9.208;2023-12-20T04:09:03;6.70;99.90
21811;DHT22;11067;48.788;9.208;2023-12-20T04:11:28;6.70;99.90
21811;DHT22;11067;48.788;9.208;2023-12-20T04:13:54;6.70;99.90
21811;DHT22;11067;48.788;9.208;2023-12-20T04:16:19;6.60;99.90
21811;DHT22;11067;48.788;9.208;2023-12-20T04:18:45;6.60;99.90
21811;DHT22;11067;48.788;9.208;2023-12-20T04:21:10;6.60;99.90
21811;DHT22;11067;48.788;9.208;2023-12-20T04:23:36;6.60;99.90
21811;DHT22;11067;48.788;9.208;2023-12-20T04:26:01;6.60;99.90
21811;DHT22;11067;48.788;9.208;2023-12-20T04:28:27;6.60;99.90
21811;DHT22;11067;48.788;9.208;2023-12-20T04:30:55;6.60;99.90
21811;DHT22;11067;48.788;9.208;2023-12-20T04:33:21;6.60;99.90
21811;DHT22;11067;48.788;9.208;2023-12-20T04:35:46;6.60;99.90
21811;DHT22;11067;48.788;9.208;2023-12-20T04:38:12;6.60;99.90
21811;DHT22;11067;48.788;9.208;2023-12-20T04:40:37;6.60;99.90
21811;DHT22;11067;48.788;9.208;2023-12-20T04:43:04;6.60;99.90
21811;DHT22;11067;48.788;9.208;2023-12-20T04:45:29;6.50;99.90
21811;DHT22;11067;48.788;9.208;2023-12-20T04:47:55;6.50;99.90
21811;DHT22;11067;48.788;9.208;2023-12-20T04:50:21;6.50;99.90
21811;DHT22;11067;48.788;9.208;2023-12-20T04:52:47;6.50;99.90
21811;DHT22;11067;48.788;9.208;2023-12-20T04:55:12;6.50;99.90
21811;DHT22;11067;48.788;9.208;2023-12-20T04:57:38;6.50;99.90
21811;DHT22;11067;48.788;9.208;2023-12-20T05:00:04;6.50;99.90
21811;DHT22;11067;48.788;9.208;2023-12-20T05:02:30;6.50;99.90
21811;DHT22;11067;48.788;9.208;2023-12-20T05:04:55;6.50;99.90
21811;DHT22;11067;48.788;9.208;2023-12-20T05:07:21;6.50;99.90
21811;DHT22;11067;48.788;9.208;2023-12-20T05:09:47;6.50;99.90
21811;DHT22;11067;48.788;9.208;2023-12-20T05:12:12;6.60;99.90
21811;DHT22;11067;48.788;9.208;2023-12-20T05:14:38;6.50;99.90
21811;DHT22;11067;48.788;9.208;2023-12-20T05:17:04;6.50;99.90
21811;DHT22;11067;48.788;9.208;2023-12-20T05:19:29;6.50;99.90
21811;DHT22;11067;48.788;9.208;2023-12-20T05:21:55;6.50;99.90
21811;DHT22;11067;48.788;9.208;2023-12-20T05:24:20;6.50;99.90
21811;DHT22;11067;48.788;9.208;2023-12-20T05:26:46;6.50;99.90
21811;DHT22;11067;48.788;9.208;2023-12-20T05:29:11;6.50;99.90
21811;DHT22;11067;48.788;9.208;2023-12-20T05:31:37;6.50;99.90
21811;DHT22;11067;48.788;9.208;2023-12-20T05:34:02;6.50;99.90
21811;DHT22;11067;48.788;9.208;2023-12-20T05:36:28;6.50;99.90
21811;DHT22;11067;48.788;9.208;2023-12-20T05:38:53;6.60;99.90
21811;DHT22;11067;48.788;9.208;2023-12-20T05:41:19;6.60;99.90
21811;DHT22;11067;48.788;9.208;2023-12-20T05:44:04;6.50;99.90
21811;DHT22;11067;48.788;9.208;2023-12-20T05:46:32;6.50;99.90
21811;DHT22;11067;48.788;9.208;2023-12-20T05:48:58;6.60;99.90
21811;DHT22;11067;48.788;9.208;2023-12-20T05:51:23;6.60;99.90
21811;DHT22;11067;48.788;9.208;2023-12-20T05:53:49;6.60;99.90
21811;DHT22;11067;48.788;9.208;2023-12-20T05:56:15;6.60;99.90
21811;DHT22;11067;48.788;9.208;2023-12-20T05:58:41;6.60;99.90
21811;DHT22;11067;48.788;9.208;2023-12-20T06:01:06;6.60;99.90
21811;DHT22;11067;48.788;9.208;2023-12-20T06:03:33;6.60;99.90
21811;DHT22;11067;48.788;9.208;2023-12-20T06:05:59;6.60;99.90
21811;DHT22;11067;48.788;9.208;2023-12-20T06:08:29;6.60;99.90
21811;DHT22;11067;48.788;9.208;2023-12-20T06:10:54;6.60;99.90
21811;DHT22;11067;48.788;9.208;2023-12-20T06:13:20;6.70;99.90
21811;DHT22;11067;48.788;9.208;2023-12-20T06:15:45;6.60;99.90
21811;DHT22;11067;48.788;9.208;2023-12-20T06:18:11;6.70;99.90
21811;DHT22;11067;48.788;9.208;2023-12-20T06:20:36;6.70;99.90
21811;DHT22;11067;48.788;9.208;2023-12-20T06:23:02;6.70;99.90
21811;DHT22;11067;48.788;9.208;2023-12-20T06:25:27;6.70;99.90
21811;DHT22;11067;48.788;9.208;2023-12-20T06:27:53;6.60;99.90
21811;DHT22;11067;48.788;9.208;2023-12-20T06:30:19;6.70;99.90
21811;DHT22;11067;48.788;9.208;2023-12-20T06:32:44;6.70;99.90
21811;DHT22;11067;48.788;9.208;2023-12-20T06:35:12;6.70;99.90
21811;DHT22;11067;48.788;9.208;2023-12-20T06:37:37;6.70;99.90
21811;DHT22;11067;48.788;9.208;2023-12-20T06:40:03;6.70;99.90
21811;DHT22;11067;48.788;9.208;2023-12-20T06:42:29;6.70;99.90
21811;DHT22;11067;48.788;9.208;2023-12-20T06:44:54;6.80;99.90
21811;DHT22;11067;48.788;9.208;2023-12-20T06:47:20;6.90;99.90
21811;DHT22;11067;48.788;9.208;2023-12-20T06:49:46;6.80;99.90
21811;DHT22;11067;48.788;9.208;2023-12-20T06:52:11;6.80;99.90
21811;DHT22;11067;48.788;9.208;2023-12-20T06:54:37;6.80;99.90
21811;DHT22;11067;48.788;9.208;2023-12-20T06:57:02;6.90;99.90
21811;DHT22;11067;48.788;9.208;2023-12-20T06:59:29;6.90;99.90
21811;DHT22;11067;48.788;9.208;2023-12-20T07:01:55;6.90;99.90
21811;DHT22;11067;48.788;9.208;2023-12-20T07:04:20;7.00;99.90
21811;DHT22;11067;48.788;9.208;2023-12-20T07:06:47;7.00;99.90
21811;DHT22;11067;48.788;9.208;2023-12-20T07:09:13;7.00;99.90
21811;DHT22;11067;48.788;9.208;2023-12-20T07:11:39;6.90;99.90
21811;DHT22;11067;48.788;9.208;2023-12-20T07:14:05;7.00;99.90
21811;DHT22;11067;48.788;9.208;2023-12-20T07:16:31;7.00;99.90
21811;DHT22;11067;48.788;9.208;2023-12-20T07:18:56;7.10;99.90
21811;DHT22;11067;48.788;9.208;2023-12-20T07:21:22;7.10;99.90
21811;DHT22;11067;48.788;9.208;2023-12-20T07:23:48;7.10;99.90
21811;DHT22;11067;48.788;9.208;2023-12-20T07:26:13;7.20;99.90
21811;DHT22;11067;48.788;9.208;2023-12-20T07:28:39;7.20;99.90
21811;DHT22;11067;48.788;9.208;2023-12-20T07:31:05;7.20;99.90
21811;DHT22;11067;48.788;9.208;2023-12-20T07:33:31;7.10;99.90
21811;DHT22;11067;48.788;9.208;2023-12-20T07:35:56;7.10;99.90
21811;DHT22;11067;48.788;9.208;2023-12-20T07:38:22;7.10;99.90
21811;DHT22;11067;48.788;9.208;2023-12-20T07:40:48;7.00;99.90
21811;DHT22;11067;48.788;9.208;2023-12-20T07:43:13;7.00;99.90
21811;DHT22;11067;48.788;9.208;2023-12-20T07:45:39;7.00;99.90
21811;DHT22;11067;48.788;9.208;2023-12-20T07:48:06;7.00;99.90
21811;DHT22;11067;48.788;9.208;2023-12-20T07:50:31;6.90;99.90
21811;DHT22;11067;48.788;9.208;2023-12-20T07:52:58;6.90;99.90
21811;DHT22;11067;48.788;9.208;2023-12-20T07:55:56;6.80;99.90
21811;DHT22;11067;48.788;9.208;2023-12-20T07:58:24;6.80;99.90
21811;DHT22;11067;48.788;9.208;2023-12-20T08:00:50;6.70;99.90
21811;DHT22;11067;48.788;9.208;2023-12-20T08:03:15;6.60;99.90
21811;DHT22;11067;48.788;9.208;2023-12-20T08:05:41;6.50;99.90
21811;DHT22;11067;48.788;9.208;2023-12-20T08:08:07;6.50;99.90
21811;DHT22;11067;48.788;9.208;2023-12-20T08:10:32;6.50;99.90
21811;DHT22;11067;48.788;9.208;2023-12-20T08:12:58;6.40;99.90
21811;DHT22;11067;48.788;9.208;2023-12-20T08:15:23;6.40;99.90
21811;DHT22;11067;48.788;9.208;2023-12-20T08:17:49;6.40;99.90
21811;DHT22;11067;48.788;9.208;2023-12-20T08:20:18;6.30;99.90
21811;DHT22;11067;48.788;9.208;2023-12-20T08:22:44;6.40;99.90
21811;DHT22;11067;48.788;9.208;2023-12-20T08:25:09;6.30;99.90
21811;DHT22;11067;48.788;9.208;2023-12-20T08:27:41;6.30;99.90
21811;DHT22;11067;48.788;9.208;2023-12-20T08:30:08;6.30;99.90
21811;DHT22;11067;48.788;9.208;2023-12-20T08:32:34;6.40;99.90
21811;DHT22;11067;48.788;9.208;2023-12-20T08:35:00;6.30;99.90
21811;DHT22;11067;48.788;9.208;2023-12-20T08:37:25;6.30;99.90
21811;DHT22;11067;48.788;9.208;2023-12-20T08:39:51;6.20;99.90
21811;DHT22;11067;48.788;9.208;2023-12-20T08:42:16;6.20;99.90
21811;DHT22;11067;48.788;9.208;2023-12-20T08:44:42;6.20;99.90
21811;DHT22;11067;48.788;9.208;2023-12-20T08:47:08;6.20;99.90
21811;DHT22;11067;48.788;9.208;2023-12-20T08:49:33;6.10;99.90
21811;DHT22;11067;48.788;9.208;2023-12-20T08:51:59;6.20;99.90
21811;DHT22;11067;48.788;9.208;2023-12-20T08:54:24;6.30;99.90
21811;DHT22;11067;48.788;9.208;2023-12-20T08:56:50;6.30;99.90
21811;DHT22;11067;48.788;9.208;2023-12-20T08:59:15;6.30;99.90
21811;DHT22;11067;48.788;9.208;2023-12-20T09:01:41;6.30;99.90
21811;DHT22;11067;48.788;9.208;2023-12-20T09:04:07;6.30;99.90
21811;DHT22;11067;48.788;9.208;2023-12-20T09:06:32;6.50;99.90
21811;DHT22;11067;48.788;9.208;2023-12-20T09:08:58;6.40;99.90
21811;DHT22;11067;48.788;9.208;2023-12-20T09:11:23;6.40;99.90
21811;DHT22;11067;48.788;9.208;2023-12-20T09:13:49;6.50;99.90
21811;DHT22;11067;48.788;9.208;2023-12-20T09:16:14;6.50;99.90
21811;DHT22;11067;48.788;9.208;2023-12-20T09:18:41;6.60;99.90
21811;DHT22;11067;48.788;9.208;2023-12-20T09:21:06;6.60;99.90
21811;DHT22;11067;48.788;9.208;2023-12-20T09:23:32;6.60;99.90
21811;DHT22;11067;48.788;9.208;2023-12-20T09:25:57;6.70;99.90
21811;DHT22;11067;48.788;9.208;2023-12-20T09:28:23;6.70;99.90
21811;DHT22;11067;48.788;9.208;2023-12-20T09:30:48;6.80;99.90
21811;DHT22;11067;48.788;9.208;2023-12-20T09:33:14;6.90;99.90
21811;DHT22;11067;48.788;9.208;2023-12-20T09:35:40;6.80;99.90
21811;DHT22;11067;48.788;9.208;2023-12-20T09:38:05;6.70;99.90
21811;DHT22;11067;48.788;9.208;2023-12-20T09:40:32;6.80;99.90
21811;DHT22;11067;48.788;9.208;2023-12-20T09:43:10;6.80;99.90
21811;DHT22;11067;48.788;9.208;2023-12-20T09:45:35;6.90;99.90
21811;DHT22;11067;48.788;9.208;2023-12-20T09:48:01;6.90;99.90
21811;DHT22;11067;48.788;9.208;2023-12-20T09:50:30;6.90;99.90
21811;DHT22;11067;48.788;9.208;2023-12-20T09:52:58;6.90;99.90
21811;DHT22;11067;48.788;9.208;2023-12-20T09:55:27;7.00;99.90
21811;DHT22;11067;48.788;9.208;2023-12-20T09:57:53;7.00;99.90
21811;DHT22;11067;48.788;9.208;2023-12-20T10:00:19;7.00;99.90
21811;DHT22;11067;48.788;9.208;2023-12-20T10:02:57;7.20;99.90
21811;DHT22;11067;48.788;9.208;2023-12-20T10:05:33;7.20;99.90
21811;DHT22;11067;48.788;9.208;2023-12-20T10:07:59;7.20;99.90
21811;DHT22;11067;48.788;9.208;2023-12-20T10:10:26;7.20;99.90
21811;DHT22;11067;48.788;9.208;2023-12-20T10:13:09;7.20;99.90
21811;DHT22;11067;48.788;9.208;2023-12-20T10:15:36;7.30;99.90
21811;DHT22;11067;48.788;9.208;2023-12-20T10:18:03;7.40;99.90
21811;DHT22;11067;48.788;9.208;2023-12-20T10:20:30;7.50;99.90
21811;DHT22;11067;48.788;9.208;2023-12-20T10:22:59;7.60;99.90
21811;DHT22;11067;48.788;9.208;2023-12-20T10:25:26;7.50;99.90
21811;DHT22;11067;48.788;9.208;2023-12-20T10:28:09;7.40;99.90
21811;DHT22;11067;48.788;9.208;2023-12-20T10:30:35;7.40;99.90
21811;DHT22;11067;48.788;9.208;2023-12-20T10:33:01;7.20;99.90
21811;DHT22;11067;48.788;9.208;2023-12-20T10:35:27;7.20;99.90
21811;DHT22;11067;48.788;9.208;2023-12-20T10:37:55;7.20;99.90
21811;DHT22;11067;48.788;9.208;2023-12-20T10:40:22;7.30;99.90
21811;DHT22;11067;48.788;9.208;2023-12-20T10:42:49;7.30;99.90
21811;DHT22;11067;48.788;9.208;2023-12-20T10:45:16;7.20;99.90
21811;DHT22;11067;48.788;9.208;2023-12-20T10:47:44;7.20;99.90
21811;DHT22;11067;48.788;9.208;2023-12-20T10:50:11;7.00;99.90
21811;DHT22;11067;48.788;9.208;2023-12-20T10:52:38;7.00;99.90
21811;DHT22;11067;48.788;9.208;2023-12-20T10:55:04;6.90;99.90
21811;DHT22;11067;48.788;9.208;2023-12-20T10:57:30;6.90;99.90
21811;DHT22;11067;48.788;9.208;2023-12-20T11:00:00;6.80;99.90
21811;DHT22;11067;48.788;9.208;2023-12-20T11:02:28;6.80;99.90
21811;DHT22;11067;48.788;9.208;2023-12-20T11:05:06;6.70;99.90
21811;DHT22;11067;48.788;9.208;2023-12-20T11:07:48;6.60;99.90
21811;DHT22;11067;48.788;9.208;2023-12-20T11:13:31;6.50;99.90
21811;DHT22;11067;48.788;9.208;2023-12-20T11:15:30;6.70;99.90
21811;DHT22;11067;48.788;9.208;2023-12-20T11:17:56;6.80;99.90
21811;DHT22;11067;48.788;9.208;2023-12-20T11:20:23;6.80;99.90
21811;DHT22;11067;48.788;9.208;2023-12-20T11:22:53;6.90;99.90
21811;DHT22;11067;48.788;9.208;2023-12-20T11:25:19;7.00;99.90
21811;DHT22;11067;48.788;9.208;2023-12-20T11:28:08;7.00;99.90
21811;DHT22;11067;48.788;9.208;2023-12-20T11:30:42;7.10;99.90
21811;DHT22;11067;48.788;9.208;2023-12-20T11:33:10;7.10;99.90
21811;DHT22;11067;48.788;9.208;2023-12-20T11:35:36;7.10;99.90
21811;DHT22;11067;48.788;9.208;2023-12-20T11:38:02;7.00;99.90
21811;DHT22;11067;48.788;9.208;2023-12-20T11:40:28;7.00;99.90
21811;DHT22;11067;48.788;9.208;2023-12-20T11:42:53;7.00;99.90
21811;DHT22;11067;48.788;9.208;2023-12-20T11:45:24;6.90;99.90
21811;DHT22;11067;48.788;9.208;2023-12-20T11:47:52;6.90;99.90
21811;DHT22;11067;48.788;9.208;2023-12-20T11:50:20;7.10;99.90
21811;DHT22;11067;48.788;9.208;2023-12-20T11:52:47;6.90;99.90
21811;DHT22;11067;48.788;9.208;2023-12-20T11:55:13;6.90;99.90
21811;DHT22;11067;48.788;9.208;2023-12-20T11:57:39;6.90;99.90
21811;DHT22;11067;48.788;9.208;2023-12-20T12:00:05;7.00;99.90
21811;DHT22;11067;48.788;9.208;2023-12-20T12:02:32;6.90;99.90
21811;DHT22;11067;48.788;9.208;2023-12-20T12:04:59;6.90;99.90
21811;DHT22;11067;48.788;9.208;2023-12-20T12:07:24;7.00;99.90
21811;DHT22;11067;48.788;9.208;2023-12-20T12:09:50;6.90;99.90
21811;DHT22;11067;48.788;9.208;2023-12-20T12:12:16;6.90;99.90
21811;DHT22;11067;48.788;9.208;2023-12-20T12:14:42;6.90;99.90
21811;DHT22;11067;48.788;9.208;2023-12-20T12:17:14;7.00;99.90
21811;DHT22;11067;48.788;9.208;2023-12-20T12:19:43;7.00;99.90
21811;DHT22;11067;48.788;9.208;2023-12-20T12:22:10;6.90;99.90
21811;DHT22;11067;48.788;9.208;2023-12-20T12:24:45;7.10;99.90
21811;DHT22;11067;48.788;9.208;2023-12-20T12:27:11;7.20;99.90
21811;DHT22;11067;48.788;9.208;2023-12-20T12:29:37;7.30;99.90
21811;DHT22;11067;48.788;9.208;2023-12-20T12:32:07;7.10;99.90
21811;DHT22;11067;48.788;9.208;2023-12-20T12:34:34;7.20;99.90
21811;DHT22;11067;48.788;9.208;2023-12-20T12:37:00;7.20;99.90
21811;DHT22;11067;48.788;9.208;2023-12-20T12:39:25;7.20;99.90
21811;DHT22;11067;48.788;9.208;2023-12-20T12:41:51;7.10;99.90
21811;DHT22;11067;48.788;9.208;2023-12-20T12:44:17;6.90;99.90
21811;DHT22;11067;48.788;9.208;2023-12-20T12:46:46;6.90;99.90
21811;DHT22;11067;48.788;9.208;2023-12-20T12:49:11;6.90;99.90
21811;DHT22;11067;48.788;9.208;2023-12-20T12:51:37;6.90;99.90
21811;DHT22;11067;48.788;9.208;2023-12-20T12:54:03;6.90;99.90
21811;DHT22;11067;48.788;9.208;2023-12-20T12:56:29;6.90;99.90
21811;DHT22;11067;48.788;9.208;2023-12-20T12:58:54;6.90;99.90
21811;DHT22;11067;48.788;9.208;2023-12-20T13:01:20;7.00;99.90
21811;DHT22;11067;48.788;9.208;2023-12-20T13:03:46;7.00;99.90
21811;DHT22;11067;48.788;9.208;2023-12-20T13:06:12;7.10;99.90
21811;DHT22;11067;48.788;9.208;2023-12-20T13:08:38;7.20;99.90
21811;DHT22;11067;48.788;9.208;2023-12-20T13:11:03;7.20;99.90
21811;DHT22;11067;48.788;9.208;2023-12-20T13:13:30;7.20;99.90
21811;DHT22;11067;48.788;9.208;2023-12-20T13:15:55;7.10;99.90
21811;DHT22;11067;48.788;9.208;2023-12-20T13:18:24;7.20;99.90
21811;DHT22;11067;48.788;9.208;2023-12-20T13:20:50;7.20;99.90
21811;DHT22;11067;48.788;9.208;2023-12-20T13:23:15;7.20;99.90
21811;DHT22;11067;48.788;9.208;2023-12-20T13:25:43;7.20;99.90
21811;DHT22;11067;48.788;9.208;2023-12-20T13:28:11;7.20;99.90
21811;DHT22;11067;48.788;9.208;2023-12-20T13:30:36;7.30;99.90
21811;DHT22;11067;48.788;9.208;2023-12-20T13:33:02;7.30;99.90
21811;DHT22;11067;48.788;9.208;2023-12-20T13:35:27;7.40;99.90
21811;DHT22;11067;48.788;9.208;2023-12-20T13:37:53;7.30;99.90
21811;DHT22;11067;48.788;9.208;2023-12-20T13:40:19;7.40;99.90
21811;DHT22;11067;48.788;9.208;2023-12-20T13:42:44;7.30;99.90
21811;DHT22;11067;48.788;9.208;2023-12-20T13:45:10;7.40;99.90
21811;DHT22;11067;48.788;9.208;2023-12-20T13:47:36;7.40;99.90
21811;DHT22;11067;48.788;9.208;2023-12-20T13:50:03;7.30;99.90
21811;DHT22;11067;48.788;9.208;2023-12-20T13:52:29;7.30;99.90
21811;DHT22;11067;48.788;9.208;2023-12-20T13:54:55;7.30;99.90
21811;DHT22;11067;48.788;9.208;2023-12-20T13:57:20;7.30;99.90
21811;DHT22;11067;48.788;9.208;2023-12-20T13:59:46;7.20;99.90
21811;DHT22;11067;48.788;9.208;2023-12-20T14:02:11;7.20;99.90
21811;DHT22;11067;48.788;9.208;2023-12-20T14:04:37;7.10;99.90
21811;DHT22;11067;48.788;9.208;2023-12-20T14:07:04;7.10;99.90
21811;DHT22;11067;48.788;9.208;2023-12-20T14:09:30;7.20;99.90
21811;DHT22;11067;48.788;9.208;2023-12-20T14:11:56;7.10;99.90
21811;DHT22;11067;48.788;9.208;2023-12-20T14:14:21;7.00;99.90
21811;DHT22;11067;48.788;9.208;2023-12-20T14:16:46;7.00;99.90
21811;DHT22;11067;48.788;9.208;2023-12-20T14:19:12;7.00;99.90
21811;DHT22;11067;48.788;9.208;2023-12-20T14:21:38;7.10;99.90
21811;DHT22;11067;48.788;9.208;2023-12-20T14:24:03;7.10;99.90
21811;DHT22;11067;48.788;9.208;2023-12-20T14:26:30;7.10;99.90
21811;DHT22;11067;48.788;9.208;2023-12-20T14:28:55;7.00;99.90
21811;DHT22;11067;48.788;9.208;2023-12-20T14:31:21;6.90;99.90
21811;DHT22;11067;48.788;9.208;2023-12-20T14:33:48;6.80;99.90
21811;DHT22;11067;48.788;9.208;2023-12-20T14:36:16;6.90;99.90
21811;DHT22;11067;48.788;9.208;2023-12-20T14:38:43;6.80;99.90
21811;DHT22;11067;48.788;9.208;2023-12-20T14:41:09;6.80;99.90
21811;DHT22;11067;48.788;9.208;2023-12-20T14:43:34;6.70;99.90
21811;DHT22;11067;48.788;9.208;2023-12-20T14:46:00;6.70;99.90
21811;DHT22;11067;48.788;9.208;2023-12-20T14:48:25;6.70;99.90
21811;DHT22;11067;48.788;9.208;2023-12-20T14:50:53;6.70;99.90
21811;DHT22;11067;48.788;9.208;2023-12-20T14:53:20;6.50;99.90
21811;DHT22;11067;48.788;9.208;2023-12-20T14:55:46;6.50;99.90
21811;DHT22;11067;48.788;9.208;2023-12-20T14:58:12;6.50;99.90
21811;DHT22;11067;48.788;9.208;2023-12-20T15:00:38;6.50;99.90
21811;DHT22;11067;48.788;9.208;2023-12-20T15:03:03;6.60;99.90
21811;DHT22;11067;48.788;9.208;2023-12-20T15:05:30;6.50;99.90
21811;DHT22;11067;48.788;9.208;2023-12-20T15:07:56;6.50;99.90
21811;DHT22;11067;48.788;9.208;2023-12-20T15:10:22;6.50;99.90
21811;DHT22;11067;48.788;9.208;2023-12-20T15:12:47;6.50;99.90
21811;DHT22;11067;48.788;9.208;2023-12-20T15:15:13;6.50;99.90
21811;DHT22;11067;48.788;9.208;2023-12-20T15:17:39;6.50;99.90
21811;DHT22;11067;48.788;9.208;2023-12-20T15:20:05;6.60;99.90
21811;DHT22;11067;48.788;9.208;2023-12-20T15:22:30;6.50;99.90
21811;DHT22;11067;48.788;9.208;2023-12-20T15:24:59;6.50;99.90
21811;DHT22;11067;48.788;9.208;2023-12-20T15:27:24;6.40;99.90
21811;DHT22;11067;48.788;9.208;2023-12-20T15:29:50;6.40;99.90
21811;DHT22;11067;48.788;9.208;2023-12-20T15:32:17;6.40;99.90
21811;DHT22;11067;48.788;9.208;2023-12-20T15:34:44;6.40;99.90
21811;DHT22;11067;48.788;9.208;2023-12-20T15:37:10;6.40;99.90
21811;DHT22;11067;48.788;9.208;2023-12-20T15:39:37;6.40;99.90
21811;DHT22;11067;48.788;9.208;2023-12-20T15:42:02;6.40;99.90